Time;durP1;ratioP1;P1;durP2;ratioP2;P2;SDS_P1;SDS_P2;PMS_P1;PMS_P2;Temp;Humidity;BMP_temperature;BMP_pressure;BME280_temperature;BME280_humidity;BME280_pressure;Samples;Min_cycle;Max_cycle;Signal;HPM_P1;HPM_P2
2023/12/09 00:01:18;;;;;;;51.95;21.27;;;6.20;99.90;;;;;;5032496;28;20025;-87
2023/12/09 00:03:46;;;;;;;43.15;19.58;;;6.20;99.90;;;;;;5029744;28;20039;-86
2023/12/09 00:06:12;;;;;;;;;;;6.10;99.90;;;;;;5036083;28;20033;-87
2023/12/09 00:08:37;;;;;;;51.20;19.02;;;6.00;99.90;;;;;;5050295;28;19912;-87
2023/12/09 00:11:06;;;;;;;47.95;18.90;;;6.10;99.90;;;;;;5032686;28;20032;-87
2023/12/09 00:13:32;;;;;;;46.92;19.25;;;6.10;99.90;;;;;;5031111;28;20033;-86
2023/12/09 00:15:58;;;;;;;43.42;18.40;;;6.10;99.90;;;;;;5033067;28;20047;-87
2023/12/09 00:18:24;;;;;;;48.85;18.27;;;6.10;99.90;;;;;;5019868;28;20119;-87
2023/12/09 00:20:50;;;;;;;49.53;19.27;;;6.20;99.90;;;;;;5037822;28;20036;-86
2023/12/09 00:23:15;;;;;;;48.22;19.25;;;6.10;99.90;;;;;;5052488;28;20108;-89
2023/12/09 00:25:41;;;;;;;42.50;18.33;;;6.10;99.90;;;;;;5031195;28;20024;-87
2023/12/09 00:28:07;;;;;;;46.83;19.67;;;6.10;99.90;;;;;;5032080;28;21173;-87
2023/12/09 00:30:32;;;;;;;43.40;19.10;;;6.10;99.90;;;;;;5048681;28;20065;-86
2023/12/09 00:33:00;;;;;;;46.03;18.63;;;6.20;99.90;;;;;;5032516;28;20718;-87
2023/12/09 00:35:26;;;;;;;45.22;18.73;;;6.20;99.90;;;;;;5048312;28;20522;-86
2023/12/09 00:37:52;;;;;;;46.03;18.33;;;6.10;99.90;;;;;;5048548;28;20036;-86
2023/12/09 00:40:18;;;;;;;48.75;19.42;;;6.10;99.90;;;;;;5029065;28;20025;-86
2023/12/09 00:42:45;;;;;;;42.95;19.00;;;6.20;99.90;;;;;;5029505;28;20036;-87
2023/12/09 00:45:10;;;;;;;48.83;19.02;;;6.20;99.90;;;;;;5049384;28;20085;-87
2023/12/09 00:47:36;;;;;;;46.38;19.77;;;6.20;99.90;;;;;;5031214;28;20029;-87
2023/12/09 00:50:07;;;;;;;42.58;17.73;;;6.00;99.90;;;;;;5033609;28;20037;-87
2023/12/09 00:52:36;;;;;;;45.92;19.25;;;6.00;99.90;;;;;;5031985;28;20025;-86
2023/12/09 00:55:01;;;;;;;;;;;6.10;99.90;;;;;;5031484;28;20064;-86
2023/12/09 00:57:27;;;;;;;38.05;16.05;;;6.10;99.90;;;;;;5033189;28;20017;-86
2023/12/09 00:59:52;;;;;;;35.97;16.75;;;6.10;99.90;;;;;;5032112;28;20481;-88
2023/12/09 01:02:18;;;;;;;45.15;17.38;;;6.10;99.90;;;;;;5031911;28;20506;-87
2023/12/09 01:04:44;;;;;;;38.08;15.60;;;6.20;99.90;;;;;;5050578;28;20111;-87
2023/12/09 01:07:10;;;;;;;35.78;16.00;;;6.10;99.90;;;;;;5032777;28;20958;-86
2023/12/09 01:09:37;;;;;;;43.72;17.02;;;6.10;99.90;;;;;;5030153;28;20040;-86
2023/12/09 01:12:03;;;;;;;35.28;15.63;;;6.10;99.90;;;;;;5051474;28;20033;-87
2023/12/09 01:14:28;;;;;;;33.78;14.85;;;6.10;99.90;;;;;;5034635;28;20044;-87
2023/12/09 01:16:57;;;;;;;35.28;15.43;;;6.10;99.90;;;;;;5031933;28;20036;-86
2023/12/09 01:19:22;;;;;;;46.50;15.77;;;6.10;99.90;;;;;;5031527;28;20041;-87
2023/12/09 01:21:48;;;;;;;33.45;15.52;;;6.10;99.90;;;;;;5029784;28;20032;-87
2023/12/09 01:24:13;;;;;;;32.85;14.75;;;6.10;99.90;;;;;;5013509;28;20036;-86
2023/12/09 01:26:39;;;;;;;34.20;15.00;;;6.20;99.90;;;;;;5049214;28;20052;-87
2023/12/09 01:29:05;;;;;;;33.58;13.98;;;6.20;99.90;;;;;;5030993;28;20021;-87
2023/12/09 01:31:31;;;;;;;31.48;13.73;;;6.20;99.90;;;;;;5030668;28;20028;-87
2023/12/09 01:33:56;;;;;;;30.07;14.90;;;6.20;99.90;;;;;;5031820;28;20512;-88
2023/12/09 01:36:22;;;;;;;31.40;15.15;;;6.10;99.90;;;;;;5047327;28;20044;-86
2023/12/09 01:38:50;;;;;;;30.50;13.65;;;6.00;99.90;;;;;;5028932;28;20085;-87
2023/12/09 01:41:16;;;;;;;40.67;15.07;;;6.10;99.90;;;;;;5031999;28;20411;-86
2023/12/09 01:43:48;;;;;;;31.23;14.27;;;6.20;99.90;;;;;;5036611;28;20032;-87
2023/12/09 01:46:16;;;;;;;32.35;14.77;;;6.00;99.90;;;;;;5048668;28;20033;-87
2023/12/09 01:48:41;;;;;;;34.58;14.68;;;6.00;99.90;;;;;;5017119;28;20071;-87
2023/12/09 01:51:08;;;;;;;33.60;14.50;;;6.10;99.90;;;;;;5034564;28;20044;-86
2023/12/09 01:53:35;;;;;;;32.63;13.43;;;6.10;99.90;;;;;;5034568;28;20043;-86
2023/12/09 01:56:03;;;;;;;32.15;13.85;;;6.10;99.90;;;;;;5034953;28;20033;-86
2023/12/09 01:58:29;;;;;;;;;;;6.10;99.90;;;;;;5033734;28;20473;-87
2023/12/09 02:00:55;;;;;;;;;;;6.20;99.90;;;;;;5034429;28;19952;-87
2023/12/09 02:03:20;;;;;;;;;;;6.10;99.90;;;;;;5034934;28;20067;-87
2023/12/09 02:05:46;;;;;;;;;;;6.10;99.90;;;;;;5036315;28;20271;-85
2023/12/09 02:08:11;;;;;;;;;;;6.10;99.90;;;;;;5032400;28;19916;-87
2023/12/09 02:10:37;;;;;;;;;;;6.00;99.90;;;;;;5033882;28;20042;-86
2023/12/09 02:13:03;;;;;;;;;;;6.00;99.90;;;;;;5034648;28;19945;-87
2023/12/09 02:15:56;;;;;;;;;;;6.00;99.90;;;;;;5032685;28;20389;-86
2023/12/09 02:18:22;;;;;;;;;;;6.00;99.90;;;;;;5049947;28;19923;-87
2023/12/09 02:20:47;;;;;;;;;;;6.00;99.90;;;;;;5033703;28;19916;-87
2023/12/09 02:23:16;;;;;;;;;;;6.00;99.90;;;;;;5034261;28;19928;-86
2023/12/09 02:25:41;;;;;;;;;;;6.00;99.90;;;;;;5032956;28;19916;-87
2023/12/09 02:28:26;;;;;;;;;;;5.90;99.90;;;;;;5034681;28;19993;-87
2023/12/09 02:31:06;;;;;;;;;;;5.90;99.90;;;;;;5033102;28;19994;-86
2023/12/09 02:33:32;;;;;;;;;;;5.90;99.90;;;;;;5035735;28;19923;-86
2023/12/09 02:35:58;;;;;;;;;;;5.90;99.90;;;;;;5050900;28;19923;-86
2023/12/09 02:38:25;;;;;;;;;;;5.90;99.90;;;;;;5033443;28;20058;-86
2023/12/09 02:40:51;;;;;;;;;;;5.90;99.90;;;;;;5052682;28;19943;-86
2023/12/09 02:43:16;;;;;;;;;;;5.90;99.90;;;;;;5034794;28;20392;-87
2023/12/09 02:45:44;;;;;;;;;;;5.90;99.90;;;;;;5052267;28;20011;-86
2023/12/09 02:48:09;;;;;;;;;;;6.00;99.90;;;;;;5033978;28;19921;-87
2023/12/09 02:50:36;;;;;;;;;;;5.90;99.90;;;;;;5053443;28;19916;-87
2023/12/09 02:53:04;;;;;;;;;;;6.00;99.90;;;;;;5033416;28;19916;-88
2023/12/09 02:55:29;;;;;;;;;;;5.90;99.90;;;;;;5053787;28;19916;-86
2023/12/09 02:57:55;;;;;;;;;;;6.20;99.90;;;;;;5036343;28;19969;-87
2023/12/09 03:00:20;;;;;;;;;;;6.00;99.90;;;;;;5037567;28;19923;-87
2023/12/09 03:02:46;;;;;;;;;;;5.90;99.90;;;;;;5033145;28;20494;-88
2023/12/09 03:05:16;;;;;;;;;;;5.90;99.90;;;;;;5037300;28;19916;-88
2023/12/09 03:07:42;;;;;;;;;;;5.90;99.90;;;;;;5035803;28;19913;-88
2023/12/09 03:10:08;;;;;;;;;;;6.00;99.90;;;;;;5035227;28;19927;-86
2023/12/09 03:12:33;;;;;;;;;;;5.90;99.90;;;;;;5035030;28;19995;-87
2023/12/09 03:14:59;;;;;;;;;;;6.10;99.90;;;;;;5051729;28;19924;-86
2023/12/09 03:17:24;;;;;;;;;;;6.10;99.90;;;;;;5033110;28;20666;-86
2023/12/09 03:19:50;;;;;;;;;;;6.10;99.90;;;;;;5051354;28;20359;-87
2023/12/09 03:22:15;;;;;;;;;;;6.20;99.90;;;;;;5051940;28;21380;-86
2023/12/09 03:24:42;;;;;;;;;;;6.10;99.90;;;;;;5053643;28;19933;-86
2023/12/09 03:27:08;;;;;;;;;;;6.10;99.90;;;;;;5034881;28;19916;-86
2023/12/09 03:29:35;;;;;;;;;;;5.90;99.90;;;;;;5032802;28;20272;-87
2023/12/09 03:32:00;;;;;;;;;;;6.10;99.90;;;;;;5052497;28;19912;-87
2023/12/09 03:34:26;;;;;;;;;;;6.00;99.90;;;;;;5033869;28;19916;-87
2023/12/09 03:36:51;;;;;;;;;;;6.00;99.90;;;;;;5033149;28;19912;-87
2023/12/09 03:39:17;;;;;;;;;;;6.10;99.90;;;;;;5052966;28;19924;-87
2023/12/09 03:41:43;;;;;;;;;;;6.00;99.90;;;;;;5053112;28;19916;-87
2023/12/09 03:44:09;;;;;;;;;;;6.10;99.90;;;;;;5033027;28;20005;-87
2023/12/09 03:46:34;;;;;;;;;;;6.00;99.90;;;;;;5011122;28;19920;-86
2023/12/09 03:49:00;;;;;;;;;;;6.10;99.90;;;;;;5050868;28;20062;-88
2023/12/09 03:51:25;;;;;;;;;;;6.10;99.90;;;;;;5034069;28;19912;-87
2023/12/09 03:53:51;;;;;;;;;;;6.10;99.90;;;;;;5030101;28;19923;-87
2023/12/09 03:56:17;;;;;;;;;;;6.10;99.90;;;;;;5032022;28;19920;-87
2023/12/09 03:58:43;;;;;;;;;;;6.20;99.90;;;;;;5031172;28;19916;-87
2023/12/09 04:01:08;;;;;;;;;;;6.10;99.90;;;;;;5030438;28;20005;-87
2023/12/09 04:03:34;;;;;;;;;;;6.00;99.90;;;;;;5031195;28;19924;-86
2023/12/09 04:05:59;;;;;;;;;;;6.00;99.90;;;;;;5034849;28;19916;-85
2023/12/09 04:08:25;;;;;;;;;;;6.00;99.90;;;;;;5045632;28;19961;-85
2023/12/09 04:10:51;;;;;;;;;;;6.00;99.90;;;;;;5051189;28;19923;-86
2023/12/09 04:13:17;;;;;;;;;;;6.10;99.90;;;;;;5050422;28;19916;-87
2023/12/09 04:15:44;;;;;;;;;;;6.10;99.90;;;;;;5051936;28;19912;-85
2023/12/09 04:18:10;;;;;;;;;;;6.10;99.90;;;;;;5035346;28;19970;-87
2023/12/09 04:20:37;;;;;;;;;;;6.10;99.90;;;;;;5030129;28;19999;-87
2023/12/09 04:23:04;;;;;;;;;;;6.10;99.90;;;;;;5046765;28;19918;-85
2023/12/09 04:25:29;;;;;;;;;;;6.10;99.90;;;;;;5030620;28;19912;-86
2023/12/09 04:27:55;;;;;;;;;;;6.10;99.90;;;;;;5046010;28;20581;-86
2023/12/09 04:30:21;;;;;;;;;;;6.10;99.90;;;;;;5032991;28;19916;-86
2023/12/09 04:32:47;;;;;;;;;;;6.00;99.90;;;;;;5047284;28;19916;-86
2023/12/09 04:35:13;;;;;;;;;;;6.00;99.90;;;;;;5045562;28;19916;-85
2023/12/09 04:37:39;;;;;;;;;;;6.10;99.90;;;;;;5041884;28;22523;-84
2023/12/09 04:40:09;;;;;;;;;;;6.00;99.90;;;;;;5029763;28;20076;-86
2023/12/09 04:42:39;;;;;;;;;;;6.00;99.90;;;;;;5047572;28;19950;-85
2023/12/09 04:45:08;;;;;;;;;;;6.00;99.90;;;;;;5029259;28;21025;-86
2023/12/09 04:47:33;;;;;;;;;;;6.00;99.90;;;;;;5050517;28;19962;-86
2023/12/09 04:49:59;;;;;;;;;;;6.10;99.90;;;;;;5049021;28;20019;-85
2023/12/09 04:52:25;;;;;;;;;;;6.00;99.90;;;;;;5031571;28;19935;-85
2023/12/09 04:54:50;;;;;;;;;;;6.00;99.90;;;;;;5030390;28;19917;-86
2023/12/09 04:57:16;;;;;;;;;;;6.10;99.90;;;;;;5049241;28;19920;-86
2023/12/09 04:59:42;;;;;;;;;;;6.10;99.90;;;;;;5031474;28;19977;-86
2023/12/09 05:02:07;;;;;;;;;;;6.10;99.90;;;;;;5048652;28;20008;-86
2023/12/09 05:04:32;;;;;;;;;;;6.10;99.90;;;;;;5030654;28;20648;-86
2023/12/09 05:06:58;;;;;;;;;;;6.10;99.90;;;;;;5048683;28;20055;-85
2023/12/09 05:09:24;;;;;;;;;;;6.30;99.90;;;;;;5049020;28;19928;-86
2023/12/09 05:11:50;;;;;;;;;;;6.20;99.90;;;;;;5032019;28;19956;-86
2023/12/09 05:14:15;;;;;;;;;;;6.10;99.90;;;;;;5019615;28;19944;-86
2023/12/09 05:16:41;;;;;;;;;;;6.10;99.90;;;;;;5051812;28;19923;-85
2023/12/09 05:19:06;;;;;;;;;;;6.10;99.90;;;;;;5051129;28;19917;-86
2023/12/09 05:21:32;;;;;;;;;;;6.00;99.90;;;;;;5053795;28;19916;-86
2023/12/09 05:23:57;;;;;;;;;;;6.00;99.90;;;;;;5052452;28;20023;-87
2023/12/09 05:26:23;;;;;;;;;;;5.90;99.90;;;;;;5038681;28;19915;-85
2023/12/09 05:28:52;;;;;;;;;;;6.00;99.90;;;;;;5050790;28;19914;-86
2023/12/09 05:31:18;;;;;;;;;;;5.90;99.90;;;;;;5036755;28;19999;-86
2023/12/09 05:33:43;;;;;;;;;;;6.00;99.90;;;;;;5029356;28;20215;-86
2023/12/09 05:36:09;;;;;;;;;;;6.00;99.90;;;;;;5044997;28;20015;-87
2023/12/09 05:38:35;;;;;;;;;;;6.10;99.90;;;;;;5030770;28;19920;-85
2023/12/09 05:41:01;;;;;;;;;;;6.00;99.90;;;;;;5030479;28;19923;-85
2023/12/09 05:43:26;;;;;;;;;;;6.00;99.90;;;;;;5030880;28;19917;-86
2023/12/09 05:45:52;;;;;;;;;;;5.90;99.90;;;;;;5047453;28;19955;-86
2023/12/09 05:48:17;;;;;;;;;;;5.90;99.90;;;;;;5033274;28;20663;-86
2023/12/09 05:50:43;;;;;;;;;;;5.90;99.90;;;;;;5032857;28;19916;-85
2023/12/09 05:53:09;;;;;;;;;;;5.90;99.90;;;;;;5030817;28;20428;-85
2023/12/09 05:55:34;;;;;;;;;;;5.90;99.90;;;;;;5035381;28;19923;-86
2023/12/09 05:58:01;;;;;;;;;;;6.00;99.90;;;;;;5052771;28;19943;-86
2023/12/09 06:00:28;;;;;;;;;;;5.90;99.90;;;;;;5033708;28;19923;-86
2023/12/09 06:02:54;;;;;;;;;;;5.90;99.90;;;;;;5036060;28;19917;-86
2023/12/09 06:05:19;;;;;;;;;;;6.00;99.90;;;;;;5053375;28;19927;-85
2023/12/09 06:07:45;;;;;;;;;;;5.90;99.90;;;;;;5052722;28;19912;-85
2023/12/09 06:10:10;;;;;;;;;;;6.00;99.90;;;;;;5034576;28;20726;-85
2023/12/09 06:12:36;;;;;;;;;;;6.00;99.90;;;;;;5050869;28;20022;-87
2023/12/09 06:15:04;;;;;;;;;;;5.90;99.90;;;;;;5019404;28;19931;-86
2023/12/09 06:17:30;;;;;;;;;;;6.00;99.90;;;;;;5012980;28;20021;-86
2023/12/09 06:19:55;;;;;;;;;;;6.00;99.90;;;;;;5035956;28;20047;-86
2023/12/09 06:22:21;;;;;;;;;;;5.90;99.90;;;;;;5050270;28;20406;-86
2023/12/09 06:24:46;;;;;;;;;;;5.90;99.90;;;;;;5034996;28;20019;-86
2023/12/09 06:27:12;;;;;;;;;;;5.80;99.90;;;;;;5034276;28;19951;-86
2023/12/09 06:29:38;;;;;;;;;;;5.70;99.90;;;;;;5050931;28;19916;-85
2023/12/09 06:32:04;;;;;;;;;;;5.80;99.90;;;;;;5054275;28;19923;-86
2023/12/09 06:34:29;;;;;;;;;;;5.80;99.90;;;;;;5036000;28;20023;-85
2023/12/09 06:36:55;;;;;;;;;;;5.90;99.90;;;;;;5056605;28;19969;-84
2023/12/09 06:39:23;;;;;;;;;;;5.80;99.90;;;;;;5033787;28;19920;-86
2023/12/09 06:41:48;;;;;;;;;;;5.90;99.90;;;;;;5051726;28;19922;-87
2023/12/09 06:44:14;;;;;;;;;;;5.80;99.90;;;;;;5050551;28;19920;-86
2023/12/09 06:46:40;;;;;;;;;;;6.10;99.90;;;;;;5052925;28;19923;-85
2023/12/09 06:49:06;;;;;;;;;;;6.00;99.90;;;;;;5045796;28;20713;-86
2023/12/09 06:51:32;;;;;;;;;;;6.00;99.90;;;;;;5059480;28;19919;-86
2023/12/09 06:53:57;;;;;;;;;;;6.00;99.90;;;;;;5034757;28;19924;-87
2023/12/09 06:56:23;;;;;;;;;;;6.00;99.90;;;;;;5033107;28;19916;-86
2023/12/09 06:58:49;;;;;;;;;;;5.80;99.90;;;;;;5034464;28;19920;-86
2023/12/09 07:01:21;;;;;;;;;;;5.90;99.90;;;;;;5035966;28;19916;-86
2023/12/09 07:03:48;;;;;;;;;;;5.80;99.90;;;;;;5034248;28;19926;-86
2023/12/09 07:06:17;;;;;;;;;;;5.80;99.90;;;;;;5033205;28;19913;-86
2023/12/09 07:08:44;;;;;;;;;;;5.80;99.90;;;;;;5054013;28;19924;-86
2023/12/09 07:11:10;;;;;;;;;;;5.90;99.90;;;;;;5034164;28;19916;-85
2023/12/09 07:13:35;;;;;;;;;;;5.80;99.90;;;;;;5051870;28;19916;-88
2023/12/09 07:16:01;;;;;;;;;;;5.90;99.90;;;;;;5051628;28;20009;-86
2023/12/09 07:18:26;;;;;;;;;;;5.90;99.90;;;;;;5035276;28;19916;-85
2023/12/09 07:20:52;;;;;;;;;;;5.90;99.90;;;;;;5035573;28;19916;-86
2023/12/09 07:23:17;;;;;;;;;;;5.90;99.90;;;;;;5032551;28;20059;-85
2023/12/09 07:25:43;;;;;;;;;;;5.90;99.90;;;;;;5050893;28;20541;-86
2023/12/09 07:28:08;;;;;;;;;;;5.90;99.90;;;;;;5036636;28;19997;-86
2023/12/09 07:30:34;;;;;;;;;;;6.10;99.90;;;;;;5052099;28;20290;-86
2023/12/09 07:33:00;;;;;;;;;;;6.00;99.90;;;;;;5034827;28;20513;-87
2023/12/09 07:35:25;;;;;;;;;;;6.00;99.90;;;;;;5032659;28;19958;-86
2023/12/09 07:37:51;;;;;;;;;;;5.90;99.90;;;;;;5053260;28;20407;-87
2023/12/09 07:40:19;;;;;;;;;;;5.90;99.90;;;;;;5036454;28;19947;-87
2023/12/09 07:42:47;;;;;;;;;;;5.70;99.90;;;;;;5035805;28;19965;-86
2023/12/09 07:45:15;;;;;;;;;;;5.80;99.90;;;;;;5033090;28;19916;-86
2023/12/09 07:47:40;;;;;;;;;;;5.80;99.90;;;;;;5029237;28;20009;-86
2023/12/09 07:50:06;;;;;;;;;;;5.80;99.90;;;;;;5050905;28;19917;-86
2023/12/09 07:52:31;;;;;;;;;;;5.90;99.90;;;;;;5033004;28;19916;-85
2023/12/09 07:54:57;;;;;;;;;;;6.00;99.90;;;;;;5034447;28;19916;-86
2023/12/09 07:57:22;;;;;;;;;;;5.80;99.90;;;;;;5048568;28;20010;-86
2023/12/09 07:59:48;;;;;;;;;;;5.80;99.90;;;;;;5051177;28;19930;-86
2023/12/09 08:02:15;;;;;;;;;;;5.90;99.90;;;;;;5034376;28;19992;-86
2023/12/09 08:04:40;;;;;;;;;;;5.80;99.90;;;;;;5034364;28;19916;-86
2023/12/09 08:07:06;;;;;;;;;;;6.00;99.90;;;;;;5033914;28;19970;-86
2023/12/09 08:09:31;;;;;;;;;;;5.90;99.90;;;;;;5049326;28;20379;-86
2023/12/09 08:11:57;;;;;;;;;;;5.90;99.90;;;;;;5033886;28;19916;-85
2023/12/09 08:14:23;;;;;;;;;;;5.90;99.90;;;;;;5048875;28;19919;-85
2023/12/09 08:16:52;;;;;;;;;;;5.80;99.90;;;;;;5034900;28;19908;-86
2023/12/09 08:19:17;;;;;;;;;;;5.90;99.90;;;;;;5051402;28;19920;-86
2023/12/09 08:21:43;;;;;;;;;;;6.00;99.90;;;;;;5033491;28;19941;-86
2023/12/09 08:24:08;;;;;;;;;;;5.90;99.90;;;;;;5033898;28;20410;-86
2023/12/09 08:26:37;;;;;;;;;;;6.10;99.90;;;;;;5035818;28;20485;-86
2023/12/09 08:29:04;;;;;;;;;;;5.90;99.90;;;;;;5048813;28;20003;-86
2023/12/09 08:31:30;;;;;;;;;;;5.90;99.90;;;;;;5034467;28;19916;-86
2023/12/09 08:33:56;;;;;;;;;;;5.90;99.90;;;;;;5031633;28;19958;-85
2023/12/09 08:36:22;;;;;;;;;;;5.90;99.90;;;;;;5049350;28;19921;-87
2023/12/09 08:38:48;;;;;;;;;;;5.90;99.90;;;;;;5051014;28;19917;-86
2023/12/09 08:41:14;;;;;;;;;;;5.90;99.90;;;;;;5031910;28;20445;-88
2023/12/09 08:43:39;;;;;;;;;;;6.00;99.90;;;;;;5035006;28;19923;-86
2023/12/09 08:46:07;;;;;;;;;;;6.00;99.90;;;;;;5050215;28;20011;-85
2023/12/09 08:48:32;;;;;;;;;;;6.10;99.90;;;;;;5051722;28;19916;-86
2023/12/09 08:50:58;;;;;;;;;;;6.00;99.90;;;;;;5034222;28;20260;-85
2023/12/09 08:53:23;;;;;;;;;;;6.00;99.90;;;;;;5034683;28;19962;-86
2023/12/09 08:55:49;;;;;;;;;;;6.00;99.90;;;;;;5035970;28;19916;-87
2023/12/09 08:58:16;;;;;;;;;;;6.20;99.90;;;;;;5035749;28;20367;-86
2023/12/09 09:00:41;;;;;;;;;;;6.10;99.90;;;;;;5054917;28;20007;-86
2023/12/09 09:03:07;;;;;;;;;;;6.00;99.90;;;;;;5038702;28;19912;-87
2023/12/09 09:05:33;;;;;;;;;;;6.10;99.90;;;;;;5054344;28;19927;-85
2023/12/09 09:07:58;;;;;;;;;;;6.20;99.90;;;;;;5036271;28;19968;-86
2023/12/09 09:10:24;;;;;;;;;;;6.10;99.90;;;;;;5038049;28;19918;-86
2023/12/09 09:12:49;;;;;;;;;;;6.20;99.90;;;;;;5035358;28;19986;-87
2023/12/09 09:15:19;;;;;;;;;;;6.10;99.90;;;;;;5049095;28;20339;-86
2023/12/09 09:17:44;;;;;;;;;;;6.20;99.90;;;;;;5035741;28;20310;-86
2023/12/09 09:20:10;;;;;;;;;;;6.30;99.90;;;;;;5052469;28;19916;-86
2023/12/09 09:22:36;;;;;;;;;;;6.40;99.90;;;;;;5035397;28;19924;-87
2023/12/09 09:25:02;;;;;;;;;;;6.50;99.90;;;;;;5034674;28;19928;-86
2023/12/09 09:27:30;;;;;;;;;;;6.40;99.90;;;;;;5052671;28;19919;-86
2023/12/09 09:29:55;;;;;;;;;;;6.40;99.90;;;;;;5051191;28;20003;-87
2023/12/09 09:32:21;;;;;;;;;;;6.50;99.90;;;;;;5050456;28;19916;-85
2023/12/09 09:34:46;;;;;;;;;;;6.40;99.90;;;;;;5035453;28;19916;-86
2023/12/09 09:37:12;;;;;;;;;;;6.50;99.90;;;;;;5043870;28;19912;-86
2023/12/09 09:39:37;;;;;;;;;;;6.40;99.90;;;;;;5054500;28;20023;-86
2023/12/09 09:42:06;;;;;;;;;;;6.40;99.90;;;;;;5055155;28;19992;-85
2023/12/09 09:44:37;;;;;;;;;;;6.40;99.90;;;;;;5050999;28;19920;-86
2023/12/09 09:47:03;;;;;;;;;;;6.60;99.90;;;;;;5033691;28;19916;-86
2023/12/09 09:49:29;;;;;;;;;;;6.50;99.90;;;;;;5034548;28;19920;-86
2023/12/09 09:51:56;;;;;;;;;;;6.70;99.90;;;;;;5033425;28;19912;-86
2023/12/09 09:54:26;;;;;;;;;;;6.70;99.90;;;;;;5033691;28;19916;-86
2023/12/09 09:56:53;;;;;;;;;;;6.60;99.90;;;;;;5034976;28;20049;-86
2023/12/09 09:59:19;;;;;;;;;;;6.80;99.90;;;;;;5035512;28;19915;-87
2023/12/09 10:01:44;;;;;;;;;;;6.70;99.90;;;;;;5052285;28;19912;-86
2023/12/09 10:04:10;;;;;;;;;;;6.60;99.90;;;;;;5050698;28;19920;-85
2023/12/09 10:06:36;;;;;;;;;;;6.70;99.90;;;;;;5035161;28;19916;-86
2023/12/09 10:09:02;;;;;;;;;;;6.60;99.90;;;;;;5033026;28;21543;-86
2023/12/09 10:11:28;;;;;;;;;;;6.70;99.90;;;;;;5052118;28;20022;-85
2023/12/09 10:13:53;;;;;;;;;;;6.60;99.90;;;;;;5032371;28;19990;-86
2023/12/09 10:16:19;;;;;;;;;;;6.60;99.90;;;;;;5049800;28;19913;-84
2023/12/09 10:18:47;;;;;;;;;;;6.60;99.90;;;;;;5034159;28;19916;-86
2023/12/09 10:21:13;;;;;;;;;;;6.70;99.90;;;;;;5033258;28;19912;-87
2023/12/09 10:23:39;;;;;;;;;;;6.60;99.90;;;;;;5033164;28;20887;-86
2023/12/09 10:26:05;;;;;;;;;;;6.70;99.90;;;;;;5052938;28;20323;-86
2023/12/09 10:28:35;;;;;;;;;;;6.80;99.90;;;;;;5053871;28;19908;-92
2023/12/09 10:31:01;;;;;;;;;;;6.70;99.90;;;;;;5036953;28;19916;-89
2023/12/09 10:33:29;;;;;;;;;;;6.70;99.90;;;;;;5057098;28;19916;-88
2023/12/09 10:35:56;;;;;;;;;;;6.70;99.90;;;;;;5059633;28;20595;-89
2023/12/09 10:38:22;;;;;;;;;;;6.70;99.90;;;;;;5057823;28;19938;-91
2023/12/09 10:40:49;;;;;;;;;;;6.80;99.90;;;;;;5042558;28;19916;-91
2023/12/09 10:43:15;;;;;;;;;;;6.90;99.90;;;;;;5039719;28;19916;-90
2023/12/09 10:45:41;;;;;;;;;;;6.80;99.90;;;;;;5057765;28;19916;-90
2023/12/09 10:48:07;;;;;;;;;;;6.80;99.90;;;;;;5041800;28;19916;-88
2023/12/09 10:50:33;;;;;;;;;;;6.90;99.90;;;;;;5038880;28;19923;-89
2023/12/09 10:52:58;;;;;;;;;;;6.90;99.90;;;;;;5040439;28;19912;-90
2023/12/09 10:55:24;;;;;;;;;;;7.00;99.90;;;;;;5040830;28;20876;-90
2023/12/09 10:57:50;;;;;;;;;;;7.00;99.90;;;;;;5055029;28;19916;-91
2023/12/09 11:00:15;;;;;;;;;;;7.00;99.90;;;;;;5037271;28;20351;-92
2023/12/09 11:02:42;;;;;;;;;;;7.10;99.90;;;;;;5036895;28;19916;-92
2023/12/09 11:05:09;;;;;;;;;;;7.10;99.90;;;;;;5036576;28;19923;-91
2023/12/09 11:07:38;;;;;;;;;;;7.10;99.90;;;;;;5052845;28;19959;-91
2023/12/09 11:10:06;;;;;;;;;;;7.20;99.90;;;;;;5069422;22;19962;-66
2023/12/09 11:12:32;;;;;;;;;;;7.40;99.90;;;;;;5024194;28;19916;-66
2023/12/09 11:15:13;;;;;;;;;;;7.40;99.90;;;;;;5024192;28;19959;-66
2023/12/09 11:17:40;;;;;;;;;;;7.40;99.90;;;;;;5025828;28;20347;-67
2023/12/09 11:20:15;;;;;;;;;;;7.40;99.90;;;;;;5024582;28;19940;-66
2023/12/09 11:22:44;;;;;;;;;;;7.50;99.90;;;;;;5000372;28;20302;-67
2023/12/09 11:25:18;;;;;;;;;;;7.60;99.90;;;;;;5021491;28;19931;-67
2023/12/09 11:27:48;;;;;;;;;;;7.70;99.90;;;;;;5023306;28;20081;-67
2023/12/09 11:30:33;;;;;;;;;;;7.90;99.90;;;;;;5023063;28;19916;-67
2023/12/09 11:32:59;;;;;;;;;;;8.00;99.90;;;;;;5023672;28;20921;-67
2023/12/09 11:35:25;;;;;;;;;;;8.00;99.90;;;;;;5021657;28;19917;-67
2023/12/09 11:37:54;;;;;;;;;;;8.00;99.90;;;;;;5022983;28;19926;-67
2023/12/09 11:40:20;;;;;;;;;;;8.10;99.90;;;;;;5006462;28;20415;-68
2023/12/09 11:42:48;;;;;;;;;;;8.00;99.90;;;;;;5025150;28;20405;-67
2023/12/09 11:45:14;;;;;;;;;;;8.00;99.90;;;;;;5021727;28;19921;-67
2023/12/09 11:47:40;;;;;;;;;;;8.10;99.90;;;;;;5026815;28;19917;-65
2023/12/09 11:50:07;;;;;;;;;;;8.10;99.90;;;;;;5021276;28;20437;-64
2023/12/09 11:52:33;;;;;;;;;;;8.10;99.90;;;;;;5023329;28;19919;-69
2023/12/09 11:55:02;;;;;;;;;;;8.20;99.90;;;;;;5021409;28;19962;-65
2023/12/09 11:57:33;;;;;;;;;;;8.10;99.90;;;;;;5024347;28;20402;-65
2023/12/09 11:59:59;;;;;;;;;;;8.30;99.90;;;;;;5006319;28;19947;-70
2023/12/09 12:02:24;;;;;;;;;;;8.40;99.90;;;;;;5021525;28;20650;-67
2023/12/09 12:04:50;;;;;;;;;;;8.40;99.90;;;;;;5005080;28;19920;-68
2023/12/09 12:07:15;;;;;;;;;;;8.30;99.90;;;;;;5021918;28;20051;-66
2023/12/09 12:09:43;;;;;;;;;;;8.30;99.90;;;;;;5020457;28;19916;-67
2023/12/09 12:12:09;;;;;;;;;;;8.20;99.90;;;;;;5024141;28;20428;-69
2023/12/09 12:14:35;;;;;;;;;;;8.20;99.90;;;;;;5021288;28;19916;-69
2023/12/09 12:17:03;;;;;;;;;;;8.20;99.90;;;;;;5022557;28;19943;-69
2023/12/09 12:19:31;;;;;;;;;;;8.30;99.90;;;;;;5021333;28;20274;-69
2023/12/09 12:21:57;;;;;;;;;;;8.20;99.90;;;;;;5024085;28;20505;-68
2023/12/09 12:24:25;;;;;;;;;;;8.20;99.90;;;;;;5020747;28;20054;-69
2023/12/09 12:26:53;;;;;;;;;;;8.20;99.90;;;;;;5021074;28;19923;-69
2023/12/09 12:29:20;;;;;;;;;;;8.20;99.90;;;;;;5022185;28;19916;-69
2023/12/09 12:31:51;;;;;;;;;;;8.20;99.90;;;;;;5023088;28;19948;-68
2023/12/09 12:34:17;;;;;;;;;;;8.20;99.90;;;;;;5021687;28;19921;-69
2023/12/09 12:36:49;;;;;;;;;;;8.30;99.90;;;;;;5023445;28;19966;-69
2023/12/09 12:39:15;;;;;;;;;;;8.30;99.90;;;;;;5022238;28;19913;-69
2023/12/09 12:41:41;;;;;;;;;;;8.30;99.90;;;;;;5015637;28;20015;-69
2023/12/09 12:44:06;;;;;;;;;;;8.30;99.90;;;;;;5022374;28;20081;-69
2023/12/09 12:46:32;;;;;;;;;;;8.30;99.90;;;;;;5021817;28;20426;-70
2023/12/09 12:48:57;;;;;;;;;;;8.30;99.90;;;;;;5062831;22;19920;-70
2023/12/09 12:51:23;;;;;;;;;;;8.20;99.90;;;;;;5035602;28;19970;-68
2023/12/09 12:53:49;;;;;;;;;;;8.20;99.90;;;;;;5025882;28;20405;-70
2023/12/09 12:56:14;;;;;;;;;;;8.10;99.90;;;;;;5040668;28;19920;-68
2023/12/09 12:58:40;;;;;;;;;;;8.20;99.90;;;;;;5025394;28;20015;-69
2023/12/09 13:01:05;;;;;;;;;;;8.10;99.90;;;;;;5040758;28;19946;-69
2023/12/09 13:03:32;;;;;;;;;;;8.10;99.90;;;;;;5040757;28;19920;-69
2023/12/09 13:05:58;;;;;;;;;;;8.20;99.90;;;;;;5040275;28;19920;-68
2023/12/09 13:08:24;;;;;;;;;;;8.10;99.90;;;;;;5042126;28;19991;-68
2023/12/09 13:10:49;;;;;;;;;;;8.10;99.90;;;;;;5043166;28;19932;-69
2023/12/09 13:13:15;;;;;;;;;;;8.10;99.90;;;;;;5043726;28;19916;-69
2023/12/09 13:15:43;;;;;;;;;;;8.10;99.90;;;;;;5040703;28;19912;-69
2023/12/09 13:18:13;;;;;;;;;;;8.10;99.90;;;;;;5040325;28;19916;-69
2023/12/09 13:20:46;;;;;;;;;;;8.10;99.90;;;;;;5042258;28;19923;-69
2023/12/09 13:23:14;;;;;;;;;;;8.20;99.90;;;;;;5041313;28;20760;-68
2023/12/09 13:25:40;;;;;;;;;;;8.10;99.90;;;;;;5039364;28;19920;-69
2023/12/09 13:28:08;;;;;;;;;;;8.10;99.90;;;;;;5041030;28;19992;-69
2023/12/09 13:30:36;;;;;;;;;;;8.10;99.90;;;;;;5040282;28;20416;-68
2023/12/09 13:33:06;;;;;;;;;;;8.10;99.90;;;;;;5041950;28;20007;-69
2023/12/09 13:35:32;;;;;;;;;;;8.10;99.90;;;;;;5041708;28;19958;-69
2023/12/09 13:37:58;;;;;;;;;;;8.00;99.90;;;;;;5041439;28;20544;-70
2023/12/09 13:40:24;;;;;;;;;;;8.00;99.90;;;;;;5042661;28;20707;-70
2023/12/09 13:42:49;;;;;;;;;;;8.00;99.90;;;;;;5043375;28;19923;-69
2023/12/09 13:45:17;;;;;;;;;;;8.00;99.90;;;;;;5042562;28;19920;-69
2023/12/09 13:47:44;;;;;;;;;;;7.90;99.90;;;;;;5045236;28;19927;-69
2023/12/09 13:50:12;;;;;;;;;;;7.90;99.90;;;;;;5041893;28;19916;-70
2023/12/09 13:52:38;;;;;;;;;;;7.90;99.90;;;;;;5044069;28;19928;-69
2023/12/09 13:55:04;;;;;;;;;;;7.90;99.90;;;;;;5040705;28;20201;-69
2023/12/09 13:57:30;;;;;;;;;;;7.90;99.90;;;;;;5040312;28;19916;-70
2023/12/09 13:59:56;;;;;;;;;;;7.90;99.90;;;;;;5044003;28;19926;-70
2023/12/09 14:02:24;;;;;;;;;;;7.90;99.90;;;;;;5044747;28;19924;-68
2023/12/09 14:04:49;;;;;;;;;;;7.80;99.90;;;;;;5043673;28;19916;-68
2023/12/09 14:07:15;;;;;;;;;;;7.80;99.90;;;;;;5040882;28;20388;-68
2023/12/09 14:09:41;;;;;;;;;;;7.80;99.90;;;;;;5041458;28;21474;-68